createdAt,value
2023-01-17T00:03:34.638Z,96574.50
2023-01-17T00:06:41.815Z,96573.88
2023-01-17T00:09:47.455Z,96579.31
2023-01-17T00:12:35.099Z,96570.25
2023-01-17T00:15:26.420Z,96596.91
2023-01-17T00:18:13.495Z,96578.13
2023-01-17T00:21:19.384Z,96581.66
2023-01-17T00:24:25.235Z,96580.06
2023-01-17T00:27:12.245Z,96583.25
2023-01-17T00:29:59.245Z,96581.19
2023-01-17T00:32:46.202Z,96578.25
2023-01-17T00:35:34.636Z,96588.38
2023-01-17T00:38:24.787Z,96580.28
2023-01-17T00:41:13.327Z,96594.97
2023-01-17T00:44:18.583Z,96598.41
2023-01-17T00:47:24.243Z,96588.03
2023-01-17T00:50:30.051Z,96592.25
2023-01-17T00:53:36.315Z,96586.56
2023-01-17T00:56:42.050Z,96592.81
2023-01-17T00:59:47.736Z,96595.47
2023-01-17T01:02:54.393Z,96596.84
2023-01-17T01:05:59.620Z,96568.91
2023-01-17T01:09:05.424Z,96569.91
2023-01-17T01:12:11.081Z,96576.91
2023-01-17T01:15:16.960Z,96579.94
2023-01-17T01:18:27.320Z,96574.41
2023-01-17T01:21:32.846Z,96583.88
2023-01-17T01:24:38.503Z,96581.34
2023-01-17T01:27:44.217Z,96597.75
2023-01-17T01:30:49.962Z,96589.56
2023-01-17T01:33:37.154Z,96584.13
2023-01-17T01:36:24.264Z,96582.75
2023-01-17T01:39:11.381Z,96592.34
2023-01-17T01:41:58.432Z,96570.94
2023-01-17T01:44:51.695Z,96588.81
2023-01-17T01:47:40.948Z,96569.72
2023-01-17T01:50:29.782Z,96573.47
2023-01-17T01:53:19.359Z,96557.78
2023-01-17T01:56:12.299Z,96580.41
2023-01-17T01:59:04.282Z,96577.38
2023-01-17T02:01:54.811Z,96585.31
2023-01-17T02:04:43.761Z,96572.00
2023-01-17T02:07:41.832Z,96577.38
2023-01-17T02:10:32.620Z,96562.28
2023-01-17T02:13:21.081Z,96550.50
2023-01-17T02:16:38.577Z,96569.22
2023-01-17T02:19:31.764Z,96580.13
2023-01-17T02:22:25.042Z,96570.94
2023-01-17T02:25:26.983Z,96572.75
2023-01-17T02:28:32.309Z,96576.03
2023-01-17T02:31:39.517Z,96557.69
2023-01-17T02:34:26.544Z,96567.22
2023-01-17T02:37:19.760Z,96565.47
2023-01-17T02:40:13.141Z,96556.38
2023-01-17T02:43:05.784Z,96533.25
2023-01-17T02:45:52.878Z,96556.72
2023-01-17T02:48:40.208Z,96562.88
2023-01-17T02:51:32.562Z,96568.50
2023-01-17T02:54:38.207Z,96560.19
2023-01-17T02:57:47.303Z,96562.91
2023-01-17T03:00:50.546Z,96586.09
2023-01-17T03:03:53.987Z,96577.91
2023-01-17T03:06:50.988Z,96575.44
2023-01-17T03:09:40.810Z,96576.13
2023-01-17T03:12:29.471Z,96575.16
2023-01-17T03:15:20.281Z,96580.44
2023-01-17T03:18:12.880Z,96578.34
2023-01-17T03:21:00.142Z,96576.38
2023-01-17T03:23:47.309Z,96581.66
2023-01-17T03:26:34.401Z,96578.50
2023-01-17T03:29:21.435Z,96576.00
2023-01-17T03:32:08.530Z,96592.09
2023-01-17T03:34:55.782Z,96594.88
2023-01-17T03:37:43.001Z,96584.72
2023-01-17T03:40:30.066Z,96595.84
2023-01-17T03:43:17.135Z,96599.44
2023-01-17T03:46:07.339Z,96598.19
2023-01-17T03:48:54.501Z,96605.56
2023-01-17T03:51:41.604Z,96603.94
2023-01-17T03:54:28.695Z,96606.06
2023-01-17T03:57:15.872Z,96596.69
2023-01-17T04:00:03.002Z,96607.38
2023-01-17T04:02:50.220Z,96614.16
2023-01-17T04:05:37.363Z,96600.13
2023-01-17T04:08:24.726Z,96594.44
2023-01-17T04:11:11.842Z,96598.59
2023-01-17T04:13:58.981Z,96613.16
2023-01-17T04:16:46.468Z,96608.28
2023-01-17T04:19:36.288Z,96603.63
2023-01-17T04:22:23.331Z,96596.66
2023-01-17T04:25:10.458Z,96601.78
2023-01-17T04:28:01.593Z,96592.13
2023-01-17T04:30:48.677Z,96594.03
2023-01-17T04:33:35.781Z,96582.34
2023-01-17T04:36:22.872Z,96576.28
2023-01-17T04:39:10.024Z,96584.47
2023-01-17T04:41:57.181Z,96584.78
2023-01-17T04:44:44.221Z,96577.28
2023-01-17T04:47:31.294Z,96569.31
2023-01-17T04:50:18.933Z,96575.31
2023-01-17T04:53:05.989Z,96568.38
2023-01-17T04:55:53.062Z,96582.00
2023-01-17T04:58:40.197Z,96585.19
2023-01-17T05:01:27.553Z,96585.44
2023-01-17T05:04:14.704Z,96592.22
2023-01-17T05:07:01.780Z,96579.97
2023-01-17T05:09:48.939Z,96597.66
2023-01-17T05:12:36.031Z,96586.34
2023-01-17T05:15:24.189Z,96585.66
2023-01-17T05:18:15.535Z,96603.50
2023-01-17T05:21:04.237Z,96616.22
2023-01-17T05:23:51.349Z,96604.75
2023-01-17T05:26:38.423Z,96613.13
2023-01-17T05:29:25.524Z,96611.88
2023-01-17T05:32:12.608Z,96621.72
2023-01-17T05:34:59.705Z,96619.50
2023-01-17T05:37:49.275Z,96601.75
2023-01-17T05:40:36.594Z,96634.75
2023-01-17T05:43:23.671Z,96624.50
2023-01-17T05:46:11.144Z,96645.16
2023-01-17T05:48:59.179Z,96641.81
2023-01-17T05:51:46.265Z,96626.97
2023-01-17T05:54:33.315Z,96640.72
2023-01-17T05:57:20.382Z,96629.22
2023-01-17T06:00:08.232Z,96655.09
2023-01-17T06:02:56.976Z,96650.09
2023-01-17T06:05:45.116Z,96665.53
2023-01-17T06:08:32.241Z,96669.16
2023-01-17T06:11:19.321Z,96679.94
2023-01-17T06:14:06.373Z,96690.59
2023-01-17T06:16:53.456Z,96689.50
2023-01-17T06:19:40.536Z,96682.69
2023-01-17T06:22:27.835Z,96698.22
2023-01-17T06:25:15.032Z,96706.00
2023-01-17T06:28:02.494Z,96706.69
2023-01-17T06:30:50.346Z,96716.81
2023-01-17T06:33:37.539Z,96708.09
2023-01-17T06:36:24.676Z,96716.25
2023-01-17T06:39:14.856Z,96726.25
2023-01-17T06:42:02.390Z,96723.91
2023-01-17T06:44:49.485Z,96721.81
2023-01-17T06:47:40.871Z,96718.31
2023-01-17T06:50:28.087Z,96726.53
2023-01-17T06:53:15.463Z,96738.19
2023-01-17T06:56:03.146Z,96732.44
2023-01-17T06:58:51.406Z,96736.31
2023-01-17T07:01:38.956Z,96736.31
2023-01-17T07:04:26.048Z,96724.22
2023-01-17T07:07:13.212Z,96711.34
2023-01-17T07:10:00.945Z,96738.13
2023-01-17T07:12:48.123Z,96724.44
2023-01-17T07:15:35.242Z,96726.09
2023-01-17T07:18:25.573Z,96741.91
2023-01-17T07:21:16.104Z,96745.91
2023-01-17T07:24:03.176Z,96751.91
2023-01-17T07:26:51.243Z,96750.09
2023-01-17T07:29:38.303Z,96734.72
2023-01-17T07:32:28.121Z,96738.16
2023-01-17T07:35:15.254Z,96746.91
2023-01-17T07:38:02.739Z,96748.75
2023-01-17T07:40:49.847Z,96750.44
2023-01-17T07:43:37.069Z,96738.97
2023-01-17T07:46:24.222Z,96736.22
2023-01-17T07:49:11.314Z,96750.38
2023-01-17T07:52:00.573Z,96739.00
2023-01-17T07:54:47.632Z,96751.09
2023-01-17T07:57:34.753Z,96748.16
2023-01-17T08:00:27.700Z,96732.34
2023-01-17T08:03:17.033Z,96745.66
2023-01-17T08:06:04.543Z,96734.94
2023-01-17T08:08:55.215Z,96735.78
2023-01-17T08:11:42.350Z,96727.00
2023-01-17T08:14:29.410Z,96733.41
2023-01-17T08:17:17.306Z,96692.06
2023-01-17T08:20:06.285Z,96711.22
2023-01-17T08:22:55.986Z,96729.31
2023-01-17T08:25:43.155Z,96728.13
2023-01-17T08:28:30.354Z,96731.75
2023-01-17T08:31:17.896Z,96717.88
2023-01-17T08:34:04.999Z,96737.59
2023-01-17T08:36:54.948Z,96732.06
2023-01-17T08:39:42.193Z,96741.66
2023-01-17T08:42:30.045Z,96739.56
2023-01-17T08:45:17.287Z,96745.53
2023-01-17T08:48:04.957Z,96747.06
2023-01-17T08:50:52.230Z,96746.75
2023-01-17T08:53:39.555Z,96750.63
2023-01-17T08:56:27.515Z,96761.72
2023-01-17T08:59:14.964Z,96774.22
2023-01-17T09:02:06.915Z,96778.94
2023-01-17T09:04:54.564Z,96793.09
2023-01-17T09:07:41.703Z,96805.19
2023-01-17T09:10:29.663Z,96800.41
2023-01-17T09:13:16.729Z,96802.72
2023-01-17T09:16:05.086Z,96806.63
2023-01-17T09:18:56.620Z,96783.72
2023-01-17T09:21:44.029Z,96790.09
2023-01-17T09:24:32.817Z,96772.59
2023-01-17T09:27:21.014Z,96786.56
2023-01-17T09:30:08.802Z,96766.88
2023-01-17T09:32:55.908Z,96766.06
2023-01-17T09:35:43.174Z,96765.38
2023-01-17T09:38:30.907Z,96763.50
2023-01-17T09:41:17.924Z,96765.75
2023-01-17T09:44:28.360Z,96754.91
2023-01-17T09:47:24.335Z,96754.75
2023-01-17T09:50:19.097Z,96750.63
2023-01-17T09:53:21.046Z,96727.66
2023-01-17T09:56:14.780Z,96733.34
2023-01-17T09:59:20.261Z,96718.31
2023-01-17T10:02:25.000Z,96702.50
2023-01-17T10:05:31.854Z,96695.22
2023-01-17T10:08:56.042Z,96686.09
2023-01-17T10:11:55.597Z,96671.09
2023-01-17T10:15:30.399Z,96666.69
2023-01-17T10:18:29.259Z,96657.59
2023-01-17T10:21:33.065Z,96646.00
2023-01-17T10:24:50.042Z,96631.16
2023-01-17T10:28:10.088Z,96615.31
2023-01-17T10:31:34.511Z,96603.25
2023-01-17T10:34:34.775Z,96604.38
2023-01-17T10:37:21.811Z,96605.16
2023-01-17T10:40:19.203Z,96594.56
2023-01-17T10:43:22.509Z,96593.47
2023-01-17T10:46:17.451Z,96593.06
2023-01-17T10:49:04.909Z,96587.78
2023-01-17T10:52:00.488Z,96586.06
2023-01-17T10:55:12.026Z,96584.59
2023-01-17T10:57:59.296Z,96573.09
2023-01-17T11:00:50.174Z,96579.59
2023-01-17T11:03:37.595Z,96559.41
2023-01-17T11:06:26.868Z,96588.00
2023-01-17T11:09:15.007Z,96562.72
2023-01-17T11:12:02.222Z,96560.00
2023-01-17T11:15:03.798Z,96560.00
2023-01-17T11:18:06.546Z,96557.53
2023-01-17T11:20:56.013Z,96562.91
2023-01-17T11:23:46.607Z,96549.78
2023-01-17T11:26:36.106Z,96549.34
2023-01-17T11:29:33.047Z,96561.72
2023-01-17T11:32:23.509Z,96561.44
2023-01-17T11:35:13.398Z,96555.63
2023-01-17T11:38:10.704Z,96541.41
2023-01-17T11:41:20.369Z,96542.88
2023-01-17T11:44:35.175Z,96547.78
2023-01-17T11:47:22.293Z,96536.44
2023-01-17T11:50:24.685Z,96528.34
2023-01-17T11:53:23.859Z,96529.97
2023-01-17T11:56:20.827Z,96512.91
2023-01-17T11:59:14.029Z,96497.28
2023-01-17T12:02:43.407Z,96483.22
2023-01-17T12:05:53.908Z,96476.53
2023-01-17T12:08:58.593Z,96469.88
2023-01-17T12:12:12.910Z,96467.56
2023-01-17T12:15:21.358Z,96454.97
2023-01-17T12:18:22.313Z,96449.78
2023-01-17T12:21:22.993Z,96438.34
2023-01-17T12:24:42.284Z,96433.94
2023-01-17T12:28:04.821Z,96428.22
2023-01-17T12:31:07.093Z,96430.94
2023-01-17T12:34:08.150Z,96444.69
2023-01-17T12:37:02.216Z,96436.84
2023-01-17T12:39:58.154Z,96442.09
2023-01-17T12:42:57.281Z,96452.28
2023-01-17T12:45:47.353Z,96451.19
2023-01-17T12:48:37.976Z,96453.22
2023-01-17T12:51:29.627Z,96452.50
2023-01-17T12:54:36.015Z,96444.22
2023-01-17T12:57:33.787Z,96435.56
2023-01-17T13:00:23.330Z,96409.31
2023-01-17T13:03:48.704Z,96422.13
2023-01-17T13:06:44.895Z,96397.63
2023-01-17T13:09:42.247Z,96400.59
2023-01-17T13:12:34.402Z,96394.44
2023-01-17T13:15:28.689Z,96403.00
2023-01-17T13:18:22.848Z,96395.56
2023-01-17T13:21:18.639Z,96394.06
2023-01-17T13:24:56.996Z,96382.25
2023-01-17T13:28:08.316Z,96405.84
2023-01-17T13:31:14.060Z,96398.84
2023-01-17T13:34:28.568Z,96400.22
2023-01-17T13:37:35.404Z,96396.47
2023-01-17T13:40:37.248Z,96404.16
2023-01-17T13:43:28.720Z,96395.91
2023-01-17T13:46:22.527Z,96391.06
2023-01-17T13:49:42.427Z,96362.47
2023-01-17T13:52:33.426Z,96380.19
2023-01-17T13:55:47.124Z,96378.19
2023-01-17T13:58:50.329Z,96371.78
2023-01-17T14:01:43.323Z,96358.25
2023-01-17T14:05:05.325Z,96344.50
2023-01-17T14:08:17.470Z,96352.47
2023-01-17T14:11:09.814Z,96332.66
2023-01-17T14:13:57.173Z,96330.31
2023-01-17T14:16:46.261Z,96334.31
2023-01-17T14:19:36.640Z,96335.69
2023-01-17T14:22:38.349Z,96334.63
2023-01-17T14:25:30.274Z,96327.06
2023-01-17T14:28:32.365Z,96323.78
2023-01-17T14:31:22.813Z,96313.91
2023-01-17T14:34:14.155Z,96313.47
2023-01-17T14:37:13.361Z,96278.88
2023-01-17T14:40:01.111Z,96267.97
2023-01-17T14:42:58.610Z,96252.00
2023-01-17T14:45:46.409Z,96256.56
2023-01-17T14:48:34.656Z,96262.22
2023-01-17T14:51:23.143Z,96258.34
2023-01-17T14:54:21.732Z,96257.97
2023-01-17T14:57:22.934Z,96249.47
2023-01-17T15:00:20.101Z,96237.19
2023-01-17T15:03:14.569Z,96210.88
2023-01-17T15:06:40.662Z,96235.09
2023-01-17T15:09:33.038Z,96226.22
2023-01-17T15:12:20.258Z,96215.75
2023-01-17T15:15:35.488Z,96196.13
2023-01-17T15:18:27.507Z,96197.03
2023-01-17T15:21:21.296Z,96184.41
2023-01-17T15:24:20.196Z,96155.13
2023-01-17T15:27:08.763Z,96186.22
2023-01-17T15:30:01.605Z,96195.59
2023-01-17T15:32:49.489Z,96192.75
2023-01-17T15:35:36.806Z,96182.38
2023-01-17T15:38:23.926Z,96193.88
2023-01-17T15:41:14.448Z,96178.38
2023-01-17T15:44:02.495Z,96174.69
2023-01-17T15:46:50.005Z,96170.84
2023-01-17T15:49:37.304Z,96170.28
2023-01-17T15:52:24.666Z,96186.03
2023-01-17T15:55:13.995Z,96186.41
2023-01-17T15:58:02.203Z,96178.19
2023-01-17T16:00:49.581Z,96187.06
2023-01-17T16:03:37.146Z,96173.00
2023-01-17T16:06:45.597Z,96159.91
2023-01-17T16:09:43.498Z,96144.69
2023-01-17T16:12:30.736Z,96165.78
2023-01-17T16:15:18.605Z,96182.81
2023-01-17T16:18:14.819Z,96196.81
2023-01-17T16:21:18.861Z,96184.78
2023-01-17T16:24:09.542Z,96149.00
2023-01-17T16:26:57.035Z,96177.25
2023-01-17T16:29:45.072Z,96186.16
2023-01-17T16:32:32.658Z,96199.47
2023-01-17T16:35:28.168Z,96192.38
2023-01-17T16:38:19.984Z,96207.78
2023-01-17T16:41:07.116Z,96196.78
2023-01-17T16:44:00.043Z,96198.69
2023-01-17T16:46:47.290Z,96203.28
2023-01-17T16:49:34.455Z,96147.13
2023-01-17T16:52:21.640Z,96174.13
2023-01-17T16:55:13.227Z,96185.66
2023-01-17T16:58:00.422Z,96179.44
2023-01-17T17:00:48.265Z,96203.09
2023-01-17T17:03:35.355Z,96191.94
2023-01-17T17:06:23.016Z,96195.03
2023-01-17T17:09:10.288Z,96220.25
2023-01-17T17:11:57.450Z,96235.94
2023-01-17T17:14:44.686Z,96219.66
2023-01-17T17:17:43.587Z,96191.38
2023-01-17T17:20:30.768Z,96188.50
2023-01-17T17:23:17.799Z,96177.16
2023-01-17T17:26:05.022Z,96183.88
2023-01-17T17:28:53.151Z,96177.53
2023-01-17T17:31:41.501Z,96171.78
2023-01-17T17:34:29.813Z,96164.81
2023-01-17T17:37:17.495Z,96172.84
2023-01-17T17:40:05.584Z,96180.09
2023-01-17T17:42:52.695Z,96165.63
2023-01-17T17:45:39.748Z,96178.25
2023-01-17T17:48:26.902Z,96162.78
2023-01-17T17:51:26.531Z,96161.34
2023-01-17T17:54:15.756Z,96166.06
2023-01-17T17:57:03.370Z,96152.28
2023-01-17T17:59:50.954Z,96146.34
2023-01-17T18:02:38.376Z,96147.84
2023-01-17T18:05:26.022Z,96132.47
2023-01-17T18:08:13.727Z,96150.94
2023-01-17T18:11:03.470Z,96147.41
2023-01-17T18:13:52.368Z,96158.28
2023-01-17T18:16:42.703Z,96164.44
2023-01-17T18:19:30.522Z,96146.00
2023-01-17T18:22:18.472Z,96150.94
2023-01-17T18:25:06.597Z,96145.00
2023-01-17T18:27:56.608Z,96139.44
2023-01-17T18:30:44.368Z,96144.22
2023-01-17T18:33:34.710Z,96138.22
2023-01-17T18:36:26.108Z,96131.88
2023-01-17T18:39:19.594Z,96148.25
2023-01-17T18:42:07.029Z,96135.44
2023-01-17T18:44:54.526Z,96135.50
2023-01-17T18:47:48.213Z,96118.66
2023-01-17T18:50:35.928Z,96116.06
2023-01-17T18:53:24.174Z,96116.44
2023-01-17T18:56:14.426Z,96127.16
2023-01-17T18:59:02.609Z,96129.56
2023-01-17T19:01:50.473Z,96123.66
2023-01-17T19:04:39.973Z,96129.66
2023-01-17T19:07:30.253Z,96124.34
2023-01-17T19:10:20.504Z,96108.50
2023-01-17T19:13:08.617Z,96109.91
2023-01-17T19:16:00.770Z,96111.53
2023-01-17T19:18:48.450Z,96108.88
2023-01-17T19:21:36.522Z,96123.81
2023-01-17T19:24:24.344Z,96124.84
2023-01-17T19:27:13.500Z,96113.06
2023-01-17T19:30:01.485Z,96116.19
2023-01-17T19:32:52.565Z,96099.22
2023-01-17T19:35:40.235Z,96098.22
2023-01-17T19:38:28.576Z,96095.16
2023-01-17T19:41:20.745Z,96101.06
2023-01-17T19:44:10.182Z,96094.84
2023-01-17T19:46:57.979Z,96111.16
2023-01-17T19:49:46.315Z,96112.16
2023-01-17T19:52:34.759Z,96111.50
2023-01-17T19:55:27.518Z,96096.31
2023-01-17T19:58:15.659Z,96118.50
2023-01-17T20:01:12.047Z,96109.06
2023-01-17T20:04:01.775Z,96104.38
2023-01-17T20:06:49.802Z,96108.88
2023-01-17T20:09:37.560Z,96101.81
2023-01-17T20:12:25.479Z,96090.09
2023-01-17T20:15:13.179Z,96107.03
2023-01-17T20:18:02.910Z,96094.03
2023-01-17T20:20:57.145Z,96091.44
2023-01-17T20:23:47.598Z,96107.97
2023-01-17T20:26:35.750Z,96117.13
2023-01-17T20:29:23.825Z,96105.75
2023-01-17T20:32:11.312Z,96119.06
2023-01-17T20:34:59.147Z,96134.72
2023-01-17T20:37:46.869Z,96127.44
2023-01-17T20:40:38.163Z,96129.47
2023-01-17T20:43:25.663Z,96117.56
2023-01-17T20:46:14.242Z,96104.81
2023-01-17T20:49:05.524Z,96116.63
2023-01-17T20:51:53.931Z,96096.31
2023-01-17T20:54:43.334Z,96092.63
2023-01-17T20:57:33.067Z,96106.63
2023-01-17T21:00:20.614Z,96101.63
2023-01-17T21:03:07.931Z,96103.16
2023-01-17T21:06:03.344Z,96081.28
2023-01-17T21:08:51.181Z,96087.59
2023-01-17T21:11:38.662Z,96096.66
2023-01-17T21:14:26.207Z,96103.63
2023-01-17T21:17:16.292Z,96109.22
2023-01-17T21:20:06.827Z,96106.75
2023-01-17T21:22:54.029Z,96107.31
2023-01-17T21:25:41.113Z,96107.78
2023-01-17T21:28:31.571Z,96103.81
2023-01-17T21:31:27.319Z,96110.03
2023-01-17T21:34:14.445Z,96111.88
2023-01-17T21:37:01.818Z,96097.31
2023-01-17T21:39:54.850Z,96094.66
2023-01-17T21:42:41.946Z,96100.63
2023-01-17T21:45:32.153Z,96081.06
2023-01-17T21:48:19.067Z,96102.47
2023-01-17T21:51:08.059Z,96096.16
2023-01-17T21:53:55.165Z,96099.81
2023-01-17T21:57:00.641Z,96110.06
2023-01-17T21:59:47.742Z,96102.03
2023-01-17T22:02:34.881Z,96124.53
2023-01-17T22:05:22.002Z,96114.84
2023-01-17T22:08:11.881Z,96117.13
2023-01-17T22:11:03.791Z,96120.16
2023-01-17T22:13:51.297Z,96126.84
2023-01-17T22:16:38.509Z,96127.28
2023-01-17T22:19:25.610Z,96130.97
2023-01-17T22:22:12.911Z,96133.53
2023-01-17T22:24:59.962Z,96131.56
2023-01-17T22:27:47.049Z,96113.38
2023-01-17T22:30:34.159Z,96116.81
2023-01-17T22:33:21.221Z,96114.34
2023-01-17T22:36:09.645Z,96112.78
2023-01-17T22:38:57.040Z,96109.69
2023-01-17T22:41:44.058Z,96125.72
2023-01-17T22:44:31.393Z,96140.34
2023-01-17T22:47:18.618Z,96133.31
2023-01-17T22:50:06.981Z,96137.53
2023-01-17T22:52:54.037Z,96134.63
2023-01-17T22:55:41.156Z,96135.16
2023-01-17T22:58:28.883Z,96132.22
2023-01-17T23:01:19.056Z,96142.03
2023-01-17T23:04:06.434Z,96132.22
2023-01-17T23:06:53.647Z,96127.19
2023-01-17T23:09:40.694Z,96142.38
2023-01-17T23:12:27.743Z,96136.06
2023-01-17T23:15:33.599Z,96128.47
2023-01-17T23:18:39.049Z,96130.56
2023-01-17T23:21:46.151Z,96127.19
2023-01-17T23:24:33.301Z,96150.44
2023-01-17T23:27:46.742Z,96159.03
2023-01-17T23:30:36.760Z,96149.16
2023-01-17T23:35:51.379Z,96157.47
2023-01-17T23:38:40.741Z,96149.31
2023-01-17T23:41:46.577Z,96164.72
2023-01-17T23:44:33.762Z,96146.41
2023-01-17T23:47:20.935Z,96151.00
2023-01-17T23:50:08.770Z,96148.59
2023-01-17T23:52:56.173Z,96137.06
2023-01-17T23:55:43.832Z,96144.03
2023-01-17T23:58:30.952Z,96140.94
